createdAt,value
2023-01-03T00:00:13.198Z,57.63
2023-01-03T00:03:17.310Z,50.67
2023-01-03T00:06:27.088Z,53.67
2023-01-03T00:09:29.312Z,48.58
2023-01-03T00:12:32.415Z,53.33
2023-01-03T00:15:36.063Z,49.63
2023-01-03T00:18:38.438Z,48.42
2023-01-03T00:21:41.999Z,62.22
2023-01-03T00:24:49.317Z,54.28
2023-01-03T00:27:51.713Z,50.58
2023-01-03T00:30:53.894Z,53.08
2023-01-03T00:33:56.044Z,54.92
2023-01-03T00:36:58.451Z,54.90
2023-01-03T00:40:00.590Z,50.35
2023-01-03T00:43:21.405Z,51.38
2023-01-03T00:46:24.379Z,52.63
2023-01-03T00:49:26.614Z,47.88
2023-01-03T00:52:28.824Z,53.63
2023-01-03T00:55:34.124Z,44.05
2023-01-03T00:58:37.134Z,50.17
2023-01-03T01:01:53.678Z,47.80
2023-01-03T01:04:56.050Z,48.72
2023-01-03T01:07:58.847Z,53.40
2023-01-03T01:11:04.083Z,43.20
2023-01-03T01:14:22.378Z,48.75
2023-01-03T01:17:24.804Z,45.65
2023-01-03T01:20:26.986Z,42.65
2023-01-03T01:23:29.126Z,45.80
2023-01-03T01:26:31.641Z,47.92
2023-01-03T01:29:33.845Z,53.67
2023-01-03T01:32:36.025Z,46.60
2023-01-03T01:35:38.432Z,50.42
2023-01-03T01:38:40.742Z,48.83
2023-01-03T01:42:03.091Z,48.08
2023-01-03T01:45:12.201Z,44.80
2023-01-03T01:48:16.340Z,45.13
2023-01-03T01:51:19.774Z,48.55
2023-01-03T01:54:22.043Z,48.72
2023-01-03T01:57:25.905Z,48.60
2023-01-03T02:00:28.990Z,49.72
2023-01-03T02:03:31.206Z,47.88
2023-01-03T02:06:34.231Z,47.92
2023-01-03T02:09:36.438Z,46.08
2023-01-03T02:13:05.946Z,44.25
2023-01-03T02:16:17.155Z,42.17
2023-01-03T02:19:31.375Z,47.03
2023-01-03T02:22:33.477Z,39.65
2023-01-03T02:25:56.499Z,45.30
2023-01-03T02:29:07.796Z,43.75
2023-01-03T02:32:50.058Z,42.05
2023-01-03T02:36:08.158Z,42.85
2023-01-03T02:39:23.953Z,41.72
2023-01-03T02:43:02.304Z,39.75
2023-01-03T02:46:35.122Z,38.25
2023-01-03T02:49:44.797Z,35.28
2023-01-03T02:52:50.288Z,42.83
2023-01-03T02:55:55.220Z,41.70
2023-01-03T02:59:03.320Z,41.42
2023-01-03T03:02:06.862Z,39.58
2023-01-03T03:05:21.417Z,40.92
2023-01-03T03:08:23.704Z,42.28
2023-01-03T03:11:48.414Z,42.53
2023-01-03T03:14:53.687Z,33.45
2023-01-03T03:18:01.965Z,38.78
2023-01-03T03:21:25.019Z,41.00
2023-01-03T03:24:49.029Z,38.40
2023-01-03T03:28:12.979Z,43.55
2023-01-03T03:31:32.498Z,28.85
2023-01-03T03:34:38.340Z,35.30
2023-01-03T03:37:43.033Z,35.63
2023-01-03T03:41:18.276Z,39.95
2023-01-03T03:45:02.309Z,40.78
2023-01-03T03:48:09.547Z,31.13
2023-01-03T03:51:17.619Z,34.72
2023-01-03T03:54:21.683Z,36.55
2023-01-03T03:57:32.574Z,38.58
2023-01-03T04:00:39.867Z,38.35
2023-01-03T04:03:44.321Z,34.90
2023-01-03T04:06:50.375Z,32.45
2023-01-03T04:09:52.765Z,36.47
2023-01-03T04:12:55.199Z,39.20
2023-01-03T04:15:57.437Z,34.90
2023-01-03T04:18:59.727Z,34.15
2023-01-03T04:22:02.116Z,39.45
2023-01-03T04:25:04.946Z,33.17
2023-01-03T04:28:07.171Z,40.95
2023-01-03T04:31:09.437Z,38.00
2023-01-03T04:34:11.776Z,38.00
2023-01-03T04:37:14.084Z,36.17
2023-01-03T04:40:16.457Z,35.70
2023-01-03T04:43:37.327Z,37.10
2023-01-03T04:46:40.980Z,32.28
2023-01-03T04:49:47.180Z,39.72
2023-01-03T04:52:49.378Z,39.05
2023-01-03T04:55:52.876Z,41.20
2023-01-03T04:58:55.778Z,35.92
2023-01-03T05:01:58.163Z,36.85
2023-01-03T05:05:00.455Z,29.77
2023-01-03T05:08:08.129Z,32.92
2023-01-03T05:11:10.187Z,37.45
2023-01-03T05:14:14.429Z,32.80
2023-01-03T05:17:19.181Z,37.17
2023-01-03T05:20:40.993Z,35.17
2023-01-03T05:24:01.947Z,32.38
2023-01-03T05:27:06.136Z,34.70
2023-01-03T05:30:08.676Z,33.28
2023-01-03T05:33:10.910Z,33.17
2023-01-03T05:36:13.137Z,36.28
2023-01-03T05:39:15.326Z,32.88
2023-01-03T05:42:17.488Z,31.73
2023-01-03T05:45:19.744Z,31.83
2023-01-03T05:48:22.565Z,35.50
2023-01-03T05:51:24.783Z,29.58
2023-01-03T05:54:27.141Z,30.25
2023-01-03T05:57:35.059Z,30.95
2023-01-03T06:00:37.559Z,30.50
2023-01-03T06:03:40.223Z,30.35
2023-01-03T06:06:42.351Z,33.90
2023-01-03T06:09:44.472Z,27.17
2023-01-03T06:12:46.779Z,31.50
2023-01-03T06:16:08.905Z,29.77
2023-01-03T06:19:11.225Z,32.00
2023-01-03T06:22:13.340Z,30.83
2023-01-03T06:25:15.655Z,27.60
2023-01-03T06:28:17.941Z,27.52
2023-01-03T06:31:20.910Z,31.80
2023-01-03T06:34:23.069Z,34.15
2023-01-03T06:37:25.187Z,36.67
2023-01-03T06:40:32.101Z,32.10
2023-01-03T06:43:39.754Z,33.55
2023-01-03T06:47:00.776Z,34.90
2023-01-03T06:50:21.512Z,36.03
2023-01-03T06:53:24.214Z,30.17
2023-01-03T06:56:26.432Z,34.38
2023-01-03T06:59:28.739Z,34.65
2023-01-03T07:02:30.980Z,27.42
2023-01-03T07:05:33.818Z,31.88
2023-01-03T07:08:36.270Z,32.20
2023-01-03T07:11:39.506Z,31.27
2023-01-03T07:14:41.578Z,28.95
2023-01-03T07:17:43.835Z,25.90
2023-01-03T07:20:46.451Z,25.20
2023-01-03T07:23:48.739Z,28.52
2023-01-03T07:26:52.192Z,33.03
2023-01-03T07:29:54.405Z,36.95
2023-01-03T07:32:57.103Z,35.22
2023-01-03T07:36:11.076Z,33.45
2023-01-03T07:39:13.953Z,29.85
2023-01-03T07:42:56.835Z,28.98
2023-01-03T07:45:59.109Z,27.20
2023-01-03T07:49:06.546Z,26.35
2023-01-03T07:52:13.327Z,32.58
2023-01-03T07:55:15.577Z,30.05
2023-01-03T07:58:17.835Z,28.73
2023-01-03T08:01:22.411Z,30.55
2023-01-03T08:04:24.732Z,27.95
2023-01-03T08:07:27.039Z,30.25
2023-01-03T08:10:48.340Z,29.42
2023-01-03T08:13:50.856Z,32.97
2023-01-03T08:16:53.359Z,32.22
2023-01-03T08:19:55.687Z,31.70
2023-01-03T08:23:00.409Z,31.75
2023-01-03T08:26:06.155Z,30.45
2023-01-03T08:29:08.423Z,35.15
2023-01-03T08:32:10.712Z,34.50
2023-01-03T08:35:13.042Z,32.42
2023-01-03T08:38:25.050Z,27.15
2023-01-03T08:41:31.090Z,32.42
2023-01-03T08:44:33.643Z,36.40
2023-01-03T08:47:35.926Z,30.38
2023-01-03T08:50:38.779Z,31.95
2023-01-03T08:53:40.942Z,31.55
2023-01-03T08:56:43.031Z,32.72
2023-01-03T08:59:45.184Z,29.98
2023-01-03T09:02:47.505Z,30.67
2023-01-03T09:05:49.900Z,30.25
2023-01-03T09:08:52.282Z,29.33
2023-01-03T09:11:54.562Z,31.13
2023-01-03T09:14:56.758Z,31.05
2023-01-03T09:17:58.885Z,26.63
2023-01-03T09:21:03.275Z,29.40
2023-01-03T09:24:05.920Z,34.60
2023-01-03T09:27:08.234Z,31.30
2023-01-03T09:30:10.793Z,34.65
2023-01-03T09:33:13.143Z,34.28
2023-01-03T09:36:15.306Z,31.15
2023-01-03T09:39:17.576Z,37.25
2023-01-03T09:42:42.825Z,35.72
2023-01-03T09:45:50.437Z,34.92
2023-01-03T09:48:55.266Z,33.88
2023-01-03T09:52:15.929Z,37.10
2023-01-03T09:56:12.334Z,29.50
2023-01-03T09:59:36.512Z,36.55
2023-01-03T10:03:03.862Z,31.83
2023-01-03T10:06:29.514Z,37.40
2023-01-03T10:09:52.119Z,35.45
2023-01-03T10:13:16.234Z,28.65
2023-01-03T10:16:34.222Z,30.25
2023-01-03T10:19:48.239Z,49.80
2023-01-03T10:22:51.680Z,79.88
2023-01-03T10:25:54.203Z,139.32
2023-01-03T10:28:56.661Z,89.72
2023-01-03T10:32:07.879Z,134.73
2023-01-03T10:35:18.616Z,83.00
2023-01-03T10:38:23.245Z,67.45
2023-01-03T10:41:31.789Z,59.63
2023-01-03T10:44:33.961Z,56.03
2023-01-03T10:47:36.233Z,49.38
2023-01-03T10:50:38.670Z,51.67
2023-01-03T10:53:42.536Z,58.08
2023-01-03T10:56:47.082Z,49.40
2023-01-03T10:59:50.457Z,55.25
2023-01-03T11:02:53.932Z,51.95
2023-01-03T11:06:02.111Z,46.67
2023-01-03T11:09:09.910Z,49.42
2023-01-03T11:12:29.540Z,48.28
2023-01-03T11:15:37.819Z,47.45
2023-01-03T11:18:42.214Z,47.10
2023-01-03T11:22:16.338Z,43.55
2023-01-03T11:25:39.333Z,44.05
2023-01-03T11:28:44.452Z,46.80
2023-01-03T11:32:06.882Z,42.28
2023-01-03T11:35:36.489Z,37.17
2023-01-03T11:39:22.768Z,41.40
2023-01-03T11:42:35.073Z,40.83
2023-01-03T11:45:52.647Z,39.50
2023-01-03T11:49:00.596Z,35.83
2023-01-03T11:52:27.313Z,40.35
2023-01-03T11:55:52.369Z,40.92
2023-01-03T11:59:03.555Z,38.85
2023-01-03T12:02:27.134Z,36.42
2023-01-03T12:05:46.487Z,32.25
2023-01-03T12:08:54.549Z,39.87
2023-01-03T12:11:56.643Z,35.15
2023-01-03T12:15:15.135Z,36.35
2023-01-03T12:18:37.693Z,35.63
2023-01-03T12:21:45.455Z,32.28
2023-01-03T12:25:05.221Z,33.90
2023-01-03T12:28:11.173Z,31.75
2023-01-03T12:31:26.295Z,31.85
2023-01-03T12:34:56.407Z,34.75
2023-01-03T12:37:59.470Z,30.50
2023-01-03T12:41:06.186Z,32.60
2023-01-03T12:44:21.662Z,30.90
2023-01-03T12:47:38.782Z,35.80
2023-01-03T12:50:51.801Z,34.85
2023-01-03T12:54:20.787Z,27.70
2023-01-03T12:57:57.746Z,31.67
2023-01-03T13:01:04.657Z,31.05
2023-01-03T13:04:29.442Z,27.98
2023-01-03T13:07:34.241Z,27.70
2023-01-03T13:10:41.009Z,34.60
2023-01-03T13:14:23.274Z,34.83
2023-01-03T13:17:28.741Z,27.88
2023-01-03T13:20:33.762Z,32.13
2023-01-03T13:23:35.923Z,30.60
2023-01-03T13:26:38.160Z,26.70
2023-01-03T13:29:54.111Z,28.80
2023-01-03T13:33:11.275Z,31.75
2023-01-03T13:36:14.056Z,32.10
2023-01-03T13:39:51.418Z,31.15
2023-01-03T13:43:13.602Z,35.97
2023-01-03T13:46:21.450Z,37.25
2023-01-03T13:49:27.142Z,37.00
2023-01-03T13:53:03.987Z,40.25
2023-01-03T13:56:15.161Z,42.10
2023-01-03T13:59:36.468Z,50.85
2023-01-03T14:03:08.926Z,39.67
2023-01-03T14:06:40.392Z,42.08
2023-01-03T14:10:22.369Z,41.80
2023-01-03T14:13:39.821Z,43.65
2023-01-03T14:16:50.100Z,45.08
2023-01-03T14:19:56.369Z,43.13
2023-01-03T14:23:17.263Z,48.78
2023-01-03T14:26:25.515Z,36.22
2023-01-03T14:29:28.931Z,37.58
2023-01-03T14:32:37.434Z,41.10
2023-01-03T14:35:42.793Z,42.25
2023-01-03T14:39:02.066Z,41.58
2023-01-03T14:42:06.245Z,48.00
2023-01-03T14:45:17.327Z,48.78
2023-01-03T14:48:19.867Z,41.08
2023-01-03T14:51:22.169Z,41.97
2023-01-03T14:54:26.287Z,43.15
2023-01-03T14:57:30.026Z,34.30
2023-01-03T15:00:36.305Z,35.63
2023-01-03T15:03:42.476Z,39.63
2023-01-03T15:07:09.544Z,40.47
2023-01-03T15:10:24.503Z,40.20
2023-01-03T15:13:55.763Z,37.55
2023-01-03T15:17:13.393Z,32.60
2023-01-03T15:20:23.512Z,35.25
2023-01-03T15:23:44.615Z,37.33
2023-01-03T15:26:49.507Z,39.40
2023-01-03T15:29:51.673Z,36.20
2023-01-03T15:33:02.848Z,48.70
2023-01-03T15:36:18.404Z,59.67
2023-01-03T15:39:24.423Z,54.55
2023-01-03T15:42:53.245Z,52.03
2023-01-03T15:46:09.825Z,45.05
2023-01-03T15:49:18.608Z,51.17
2023-01-03T15:52:20.799Z,49.47
2023-01-03T15:55:23.005Z,48.55
2023-01-03T15:58:26.278Z,48.97
2023-01-03T16:01:29.197Z,52.30
2023-01-03T16:04:31.575Z,50.13
2023-01-03T16:07:33.701Z,51.63
2023-01-03T16:10:36.073Z,54.58
2023-01-03T16:13:41.988Z,57.17
2023-01-03T16:16:47.521Z,54.60
2023-01-03T16:19:50.426Z,56.00
2023-01-03T16:23:01.178Z,48.08
2023-01-03T16:26:04.442Z,54.13
2023-01-03T16:29:06.685Z,51.53
2023-01-03T16:32:24.956Z,48.35
2023-01-03T16:35:27.207Z,51.70
2023-01-03T16:38:31.595Z,44.53
2023-01-03T16:41:33.692Z,54.47
2023-01-03T16:44:37.660Z,45.70
2023-01-03T16:47:40.264Z,52.85
2023-01-03T16:50:42.453Z,49.63
2023-01-03T16:53:47.083Z,55.10
2023-01-03T16:56:49.281Z,55.05
2023-01-03T16:59:52.455Z,48.22
2023-01-03T17:02:56.514Z,53.42
2023-01-03T17:05:59.110Z,49.65
2023-01-03T17:09:05.389Z,55.67
2023-01-03T17:12:12.290Z,52.03
2023-01-03T17:15:14.755Z,52.85
2023-01-03T17:18:21.919Z,54.40
2023-01-03T17:21:26.863Z,51.70
2023-01-03T17:24:29.486Z,49.67
2023-01-03T17:27:33.420Z,51.22
2023-01-03T17:30:37.247Z,52.40
2023-01-03T17:33:42.722Z,56.10
2023-01-03T17:36:44.919Z,54.85
2023-01-03T17:39:53.321Z,56.90
2023-01-03T17:42:57.625Z,53.17
2023-01-03T17:46:23.889Z,53.90
2023-01-03T17:49:26.437Z,54.90
2023-01-03T17:52:35.777Z,52.75
2023-01-03T17:55:39.946Z,52.30
2023-01-03T17:58:43.207Z,50.00
2023-01-03T18:01:45.519Z,53.90
2023-01-03T18:05:15.153Z,54.78
2023-01-03T18:08:18.343Z,52.45
2023-01-03T18:14:24.246Z,51.30
2023-01-03T18:17:29.175Z,52.22
2023-01-03T18:20:33.821Z,49.50
2023-01-03T18:23:38.520Z,49.22
2023-01-03T18:26:44.696Z,49.33
2023-01-03T18:29:46.982Z,48.55
2023-01-03T18:32:49.247Z,36.75
2023-01-03T18:35:52.885Z,41.45
2023-01-03T18:39:04.624Z,40.20
2023-01-03T18:42:25.566Z,40.92
2023-01-03T18:45:28.060Z,32.65
2023-01-03T18:48:30.300Z,46.15
2023-01-03T18:51:32.623Z,42.38
2023-01-03T18:54:38.500Z,35.63
2023-01-03T18:57:40.694Z,42.67
2023-01-03T19:00:43.417Z,50.95
2023-01-03T19:03:45.654Z,38.00
2023-01-03T19:06:52.176Z,43.58
2023-01-03T19:09:54.470Z,40.47
2023-01-03T19:12:57.827Z,38.25
2023-01-03T19:15:59.996Z,44.38
2023-01-03T19:19:03.917Z,39.75
2023-01-03T19:22:25.002Z,37.53
2023-01-03T19:25:29.791Z,40.10
2023-01-03T19:28:32.027Z,42.03
2023-01-03T19:31:45.876Z,38.70
2023-01-03T19:34:48.326Z,41.67
2023-01-03T19:37:51.407Z,41.72
2023-01-03T19:40:53.576Z,40.70
2023-01-03T19:43:55.705Z,40.00
2023-01-03T19:46:58.211Z,34.80
2023-01-03T19:50:11.286Z,34.08
2023-01-03T19:53:14.278Z,37.00
2023-01-03T19:56:22.731Z,35.00
2023-01-03T19:59:31.550Z,40.58
2023-01-03T20:02:39.789Z,39.47
2023-01-03T20:05:42.243Z,37.40
2023-01-03T20:08:45.098Z,38.97
2023-01-03T20:11:52.716Z,41.67
2023-01-03T20:14:59.954Z,38.40
2023-01-03T20:18:27.629Z,34.15
2023-01-03T20:21:32.000Z,34.83
2023-01-03T20:24:34.259Z,41.00
2023-01-03T20:27:42.440Z,40.50
2023-01-03T20:30:47.076Z,35.55
2023-01-03T20:33:49.708Z,29.83
2023-01-03T20:36:53.368Z,32.47
2023-01-03T20:39:55.512Z,36.95
2023-01-03T20:43:02.090Z,39.95
2023-01-03T20:46:04.819Z,38.13
2023-01-03T20:49:16.120Z,40.85
2023-01-03T20:52:18.455Z,32.85
2023-01-03T20:55:23.177Z,43.13
2023-01-03T20:58:25.734Z,41.33
2023-01-03T21:01:28.228Z,39.63
2023-01-03T21:04:30.448Z,39.35
2023-01-03T21:07:51.375Z,40.65
2023-01-03T21:10:53.721Z,36.05
2023-01-03T21:13:57.522Z,45.42
2023-01-03T21:16:59.754Z,37.55
2023-01-03T21:20:01.946Z,39.33
2023-01-03T21:23:04.243Z,35.88
2023-01-03T21:26:07.723Z,38.25
2023-01-03T21:29:10.507Z,43.25
2023-01-03T21:32:12.899Z,39.45
2023-01-03T21:35:20.797Z,39.25
2023-01-03T21:38:22.982Z,34.42
2023-01-03T21:41:28.887Z,35.10
2023-01-03T21:44:31.247Z,38.45
2023-01-03T21:47:33.517Z,36.85
2023-01-03T21:50:39.187Z,34.88
2023-01-03T21:53:42.373Z,40.75
2023-01-03T21:56:47.329Z,39.65
2023-01-03T21:59:49.619Z,38.85
2023-01-03T22:03:10.826Z,36.40
2023-01-03T22:06:13.969Z,36.50
2023-01-03T22:09:34.812Z,34.65
2023-01-03T22:12:37.057Z,37.20
2023-01-03T22:15:39.811Z,35.63
2023-01-03T22:18:42.505Z,34.90
2023-01-03T22:21:44.694Z,34.60
2023-01-03T22:24:46.913Z,34.40
2023-01-03T22:27:49.315Z,38.78
2023-01-03T22:30:51.497Z,36.50
2023-01-03T22:33:53.669Z,33.50
2023-01-03T22:36:55.981Z,37.90
2023-01-03T22:39:58.159Z,40.85
2023-01-03T22:43:00.338Z,36.42
2023-01-03T22:46:09.462Z,35.83
2023-01-03T22:49:11.829Z,35.00
2023-01-03T22:52:14.087Z,36.75
2023-01-03T22:55:16.270Z,39.92
2023-01-03T22:58:18.409Z,31.95
2023-01-03T23:01:27.759Z,34.78
2023-01-03T23:04:30.734Z,35.00
2023-01-03T23:07:32.862Z,32.70
2023-01-03T23:10:35.027Z,33.88
2023-01-03T23:13:37.274Z,36.55
2023-01-03T23:16:40.245Z,32.63
2023-01-03T23:19:42.436Z,34.10
2023-01-03T23:22:44.548Z,33.85
2023-01-03T23:25:46.776Z,32.03
2023-01-03T23:28:48.966Z,36.85
2023-01-03T23:31:52.886Z,34.78
2023-01-03T23:34:55.231Z,27.63
2023-01-03T23:37:58.093Z,35.35
2023-01-03T23:41:05.836Z,40.63
2023-01-03T23:44:08.134Z,34.33
2023-01-03T23:47:12.063Z,33.25
2023-01-03T23:50:14.990Z,36.13
2023-01-03T23:53:17.606Z,39.45
2023-01-03T23:56:22.809Z,36.40
2023-01-03T23:59:25.040Z,38.25
